Skip Navigation Links
NOAA logo - Click to go to the NOAA homepage
NOAA's National Weather Service
Alaska Aviation Weather Unit
  NWS logo - Click to go to the NWS homepage
Left Navbar Graphic     21 AKDT = 05 GMT

   
NOAA is celebrating 200 years of science, service, and stewardship. Visit the NOAA 200th celebration Web site to learn more.
USA.gov is the U.S. Government's official Web portal to all Federal, state and local government Web resources and services.
Facebook
NWS on Facebook

AAWU Home :: Display TAF Add Bookmark
METAR PAFE 262356Z AUTO 12007G14KT 10SM 12/07 A2954 RMK AO2 RAE29 SLP015
     P0000 60001 T01170067 10117 20083 50005 $=

METAR PAFE 270056Z AUTO 14012G17KT 10SM 12/03 A2954 RMK AO2 SLP015 P0001
     T01170033 $=

METAR PAFE 270156Z AUTO 12006KT 10SM -RA 09/07 A2955 RMK AO2 RAB06
     SLP020 P0003 T00940072 $=

METAR PAFE 270256Z AUTO 12008KT 10SM -RA 08/06 A2957 RMK AO2 SLP025
     P0005 60009 T00830061 53010 $=

METAR PAFE 270356Z AUTO 12008KT 10SM -RA 08/06 A2959 RMK AO2 SLP032
     P0001 T00780061 $=

METAR PAFE 270456Z AUTO 11007KT 10SM -RA 07/06 A2960 RMK AO2 SLP036
     P0003 T00720056 $=


NOAA's National Weather Service
Alaska Aviation Weather Unit
6930 Sand Lake Road
Anchorage, AK 99502-1845
Disclaimer
Credits
Glossary
Privacy Policy
About Us
Career Opportunities
Contact AAWU Internet Services Site last modified: April, 17th 2012